sensor_id;sensor_type;location;lat;lon;timestamp;P1;durP1;ratioP1;P2;durP2;ratioP2
32876;SDS011;19226;51.600;8.034;2024-03-02T00:01:34;0.20;;;0.20;;
32876;SDS011;19226;51.600;8.034;2024-03-02T00:04:19;0.20;;;0.20;;
32876;SDS011;19226;51.600;8.034;2024-03-02T00:07:04;0.20;;;0.20;;
32876;SDS011;19226;51.600;8.034;2024-03-02T00:09:50;0.20;;;0.20;;
32876;SDS011;19226;51.600;8.034;2024-03-02T00:18:35;0.20;;;0.20;;
32876;SDS011;19226;51.600;8.034;2024-03-02T00:21:20;0.20;;;0.20;;
32876;SDS011;19226;51.600;8.034;2024-03-02T00:24:20;0.20;;;0.20;;
32876;SDS011;19226;51.600;8.034;2024-03-02T00:27:08;0.20;;;0.20;;
32876;SDS011;19226;51.600;8.034;2024-03-02T00:29:59;0.20;;;0.20;;
32876;SDS011;19226;51.600;8.034;2024-03-02T00:32:45;0.20;;;0.20;;
32876;SDS011;19226;51.600;8.034;2024-03-02T00:35:29;0.20;;;0.20;;
32876;SDS011;19226;51.600;8.034;2024-03-02T00:38:14;0.20;;;0.20;;
32876;SDS011;19226;51.600;8.034;2024-03-02T00:41:05;0.20;;;0.20;;
32876;SDS011;19226;51.600;8.034;2024-03-02T00:44:06;0.20;;;0.20;;
32876;SDS011;19226;51.600;8.034;2024-03-02T00:46:52;0.20;;;0.20;;
32876;SDS011;19226;51.600;8.034;2024-03-02T00:49:37;0.20;;;0.20;;
32876;SDS011;19226;51.600;8.034;2024-03-02T00:52:21;0.25;;;0.25;;
32876;SDS011;19226;51.600;8.034;2024-03-02T00:55:06;0.20;;;0.20;;
32876;SDS011;19226;51.600;8.034;2024-03-02T00:57:51;0.20;;;0.20;;
32876;SDS011;19226;51.600;8.034;2024-03-02T01:00:36;0.22;;;0.22;;
32876;SDS011;19226;51.600;8.034;2024-03-02T01:03:20;0.20;;;0.20;;
32876;SDS011;19226;51.600;8.034;2024-03-02T01:06:04;0.20;;;0.20;;
32876;SDS011;19226;51.600;8.034;2024-03-02T01:08:51;0.20;;;0.20;;
32876;SDS011;19226;51.600;8.034;2024-03-02T01:11:35;0.20;;;0.20;;
32876;SDS011;19226;51.600;8.034;2024-03-02T01:14:20;0.20;;;0.20;;
32876;SDS011;19226;51.600;8.034;2024-03-02T01:17:04;0.20;;;0.20;;
32876;SDS011;19226;51.600;8.034;2024-03-02T01:19:49;0.20;;;0.20;;
32876;SDS011;19226;51.600;8.034;2024-03-02T01:22:34;0.20;;;0.20;;
32876;SDS011;19226;51.600;8.034;2024-03-02T01:25:18;0.20;;;0.20;;
32876;SDS011;19226;51.600;8.034;2024-03-02T01:28:03;0.20;;;0.20;;
32876;SDS011;19226;51.600;8.034;2024-03-02T01:30:49;0.20;;;0.20;;
32876;SDS011;19226;51.600;8.034;2024-03-02T01:33:33;0.20;;;0.20;;
32876;SDS011;19226;51.600;8.034;2024-03-02T01:36:18;0.20;;;0.20;;
32876;SDS011;19226;51.600;8.034;2024-03-02T01:39:02;0.20;;;0.20;;
32876;SDS011;19226;51.600;8.034;2024-03-02T01:41:47;0.20;;;0.20;;
32876;SDS011;19226;51.600;8.034;2024-03-02T01:44:32;0.20;;;0.20;;
32876;SDS011;19226;51.600;8.034;2024-03-02T01:47:17;0.20;;;0.20;;
32876;SDS011;19226;51.600;8.034;2024-03-02T01:50:02;0.30;;;0.30;;
32876;SDS011;19226;51.600;8.034;2024-03-02T01:52:46;0.20;;;0.20;;
32876;SDS011;19226;51.600;8.034;2024-03-02T01:55:31;0.20;;;0.20;;
32876;SDS011;19226;51.600;8.034;2024-03-02T01:58:17;0.20;;;0.20;;
32876;SDS011;19226;51.600;8.034;2024-03-02T02:01:01;0.20;;;0.20;;
32876;SDS011;19226;51.600;8.034;2024-03-02T02:03:46;0.20;;;0.20;;
32876;SDS011;19226;51.600;8.034;2024-03-02T02:06:31;0.20;;;0.20;;
32876;SDS011;19226;51.600;8.034;2024-03-02T02:09:16;0.20;;;0.20;;
32876;SDS011;19226;51.600;8.034;2024-03-02T02:12:02;0.20;;;0.20;;
32876;SDS011;19226;51.600;8.034;2024-03-02T02:14:49;0.20;;;0.20;;
32876;SDS011;19226;51.600;8.034;2024-03-02T02:17:34;0.20;;;0.20;;
32876;SDS011;19226;51.600;8.034;2024-03-02T02:20:18;0.20;;;0.20;;
32876;SDS011;19226;51.600;8.034;2024-03-02T02:23:03;0.20;;;0.20;;
32876;SDS011;19226;51.600;8.034;2024-03-02T02:25:55;0.20;;;0.20;;
32876;SDS011;19226;51.600;8.034;2024-03-02T02:28:39;0.20;;;0.20;;
32876;SDS011;19226;51.600;8.034;2024-03-02T02:31:40;0.20;;;0.20;;
32876;SDS011;19226;51.600;8.034;2024-03-02T02:34:25;0.20;;;0.20;;
32876;SDS011;19226;51.600;8.034;2024-03-02T02:37:10;0.20;;;0.20;;
32876;SDS011;19226;51.600;8.034;2024-03-02T02:39:54;0.20;;;0.20;;
32876;SDS011;19226;51.600;8.034;2024-03-02T02:42:39;0.25;;;0.25;;
32876;SDS011;19226;51.600;8.034;2024-03-02T02:45:23;0.20;;;0.20;;
32876;SDS011;19226;51.600;8.034;2024-03-02T02:48:08;0.20;;;0.20;;
32876;SDS011;19226;51.600;8.034;2024-03-02T02:50:52;0.20;;;0.20;;
32876;SDS011;19226;51.600;8.034;2024-03-02T02:53:37;0.20;;;0.20;;
32876;SDS011;19226;51.600;8.034;2024-03-02T02:56:24;0.20;;;0.20;;
32876;SDS011;19226;51.600;8.034;2024-03-02T02:59:09;0.20;;;0.20;;
32876;SDS011;19226;51.600;8.034;2024-03-02T03:01:53;0.20;;;0.20;;
32876;SDS011;19226;51.600;8.034;2024-03-02T03:04:39;0.20;;;0.20;;
32876;SDS011;19226;51.600;8.034;2024-03-02T03:07:24;0.20;;;0.20;;
32876;SDS011;19226;51.600;8.034;2024-03-02T03:10:08;0.20;;;0.20;;
32876;SDS011;19226;51.600;8.034;2024-03-02T03:12:53;0.20;;;0.20;;
32876;SDS011;19226;51.600;8.034;2024-03-02T03:15:39;0.20;;;0.20;;
32876;SDS011;19226;51.600;8.034;2024-03-02T03:18:24;0.20;;;0.20;;
32876;SDS011;19226;51.600;8.034;2024-03-02T03:21:08;0.20;;;0.20;;
32876;SDS011;19226;51.600;8.034;2024-03-02T03:23:53;0.20;;;0.20;;
32876;SDS011;19226;51.600;8.034;2024-03-02T03:26:39;0.20;;;0.20;;
32876;SDS011;19226;51.600;8.034;2024-03-02T03:29:23;0.20;;;0.20;;
32876;SDS011;19226;51.600;8.034;2024-03-02T03:32:08;0.20;;;0.20;;
32876;SDS011;19226;51.600;8.034;2024-03-02T03:34:53;0.20;;;0.20;;
32876;SDS011;19226;51.600;8.034;2024-03-02T03:37:37;0.20;;;0.20;;
32876;SDS011;19226;51.600;8.034;2024-03-02T03:40:22;0.20;;;0.20;;
32876;SDS011;19226;51.600;8.034;2024-03-02T03:43:07;0.20;;;0.20;;
32876;SDS011;19226;51.600;8.034;2024-03-02T03:45:52;0.20;;;0.20;;
32876;SDS011;19226;51.600;8.034;2024-03-02T03:48:37;0.30;;;0.30;;
32876;SDS011;19226;51.600;8.034;2024-03-02T03:51:21;0.20;;;0.20;;
32876;SDS011;19226;51.600;8.034;2024-03-02T03:54:09;0.20;;;0.20;;
32876;SDS011;19226;51.600;8.034;2024-03-02T03:56:55;0.20;;;0.20;;
32876;SDS011;19226;51.600;8.034;2024-03-02T03:59:40;0.20;;;0.20;;
32876;SDS011;19226;51.600;8.034;2024-03-02T04:02:24;0.20;;;0.20;;
32876;SDS011;19226;51.600;8.034;2024-03-02T04:05:09;0.20;;;0.20;;
32876;SDS011;19226;51.600;8.034;2024-03-02T04:07:54;0.20;;;0.20;;
32876;SDS011;19226;51.600;8.034;2024-03-02T04:10:39;0.20;;;0.20;;
32876;SDS011;19226;51.600;8.034;2024-03-02T04:13:23;0.20;;;0.20;;
32876;SDS011;19226;51.600;8.034;2024-03-02T04:16:08;0.20;;;0.20;;
32876;SDS011;19226;51.600;8.034;2024-03-02T04:18:53;0.20;;;0.20;;
32876;SDS011;19226;51.600;8.034;2024-03-02T04:21:38;0.20;;;0.20;;
32876;SDS011;19226;51.600;8.034;2024-03-02T04:24:23;0.20;;;0.20;;
32876;SDS011;19226;51.600;8.034;2024-03-02T04:27:10;0.20;;;0.20;;
32876;SDS011;19226;51.600;8.034;2024-03-02T04:29:55;0.20;;;0.20;;
32876;SDS011;19226;51.600;8.034;2024-03-02T04:32:40;0.20;;;0.20;;
32876;SDS011;19226;51.600;8.034;2024-03-02T04:35:26;0.20;;;0.20;;
32876;SDS011;19226;51.600;8.034;2024-03-02T04:38:10;0.20;;;0.20;;
32876;SDS011;19226;51.600;8.034;2024-03-02T04:40:55;0.20;;;0.20;;
32876;SDS011;19226;51.600;8.034;2024-03-02T04:43:39;0.20;;;0.20;;
32876;SDS011;19226;51.600;8.034;2024-03-02T04:46:24;0.20;;;0.20;;
32876;SDS011;19226;51.600;8.034;2024-03-02T04:49:09;0.28;;;0.28;;
32876;SDS011;19226;51.600;8.034;2024-03-02T04:51:53;0.20;;;0.20;;
32876;SDS011;19226;51.600;8.034;2024-03-02T04:54:38;0.20;;;0.20;;
32876;SDS011;19226;51.600;8.034;2024-03-02T04:57:43;0.20;;;0.20;;
32876;SDS011;19226;51.600;8.034;2024-03-02T05:00:27;0.20;;;0.20;;
32876;SDS011;19226;51.600;8.034;2024-03-02T05:03:12;0.20;;;0.20;;
32876;SDS011;19226;51.600;8.034;2024-03-02T05:05:57;0.20;;;0.20;;
32876;SDS011;19226;51.600;8.034;2024-03-02T05:08:41;0.20;;;0.20;;
32876;SDS011;19226;51.600;8.034;2024-03-02T05:11:28;0.20;;;0.20;;
32876;SDS011;19226;51.600;8.034;2024-03-02T05:14:33;0.20;;;0.20;;
32876;SDS011;19226;51.600;8.034;2024-03-02T05:17:17;0.20;;;0.20;;
32876;SDS011;19226;51.600;8.034;2024-03-02T05:20:02;0.20;;;0.20;;
32876;SDS011;19226;51.600;8.034;2024-03-02T05:22:48;0.20;;;0.20;;
32876;SDS011;19226;51.600;8.034;2024-03-02T05:25:33;0.30;;;0.30;;
32876;SDS011;19226;51.600;8.034;2024-03-02T05:28:19;0.22;;;0.22;;
32876;SDS011;19226;51.600;8.034;2024-03-02T05:31:03;0.20;;;0.20;;
32876;SDS011;19226;51.600;8.034;2024-03-02T05:33:49;0.20;;;0.20;;
32876;SDS011;19226;51.600;8.034;2024-03-02T05:36:33;0.20;;;0.20;;
32876;SDS011;19226;51.600;8.034;2024-03-02T05:39:18;0.30;;;0.30;;
32876;SDS011;19226;51.600;8.034;2024-03-02T05:42:02;0.20;;;0.20;;
32876;SDS011;19226;51.600;8.034;2024-03-02T05:44:47;0.20;;;0.20;;
32876;SDS011;19226;51.600;8.034;2024-03-02T05:47:32;0.20;;;0.20;;
32876;SDS011;19226;51.600;8.034;2024-03-02T05:50:16;0.20;;;0.20;;
32876;SDS011;19226;51.600;8.034;2024-03-02T05:53:02;0.20;;;0.20;;
32876;SDS011;19226;51.600;8.034;2024-03-02T05:55:47;0.20;;;0.20;;
32876;SDS011;19226;51.600;8.034;2024-03-02T05:58:37;0.20;;;0.20;;
32876;SDS011;19226;51.600;8.034;2024-03-02T06:01:44;0.20;;;0.20;;
32876;SDS011;19226;51.600;8.034;2024-03-02T06:04:34;0.20;;;0.20;;
32876;SDS011;19226;51.600;8.034;2024-03-02T06:07:18;0.20;;;0.20;;
32876;SDS011;19226;51.600;8.034;2024-03-02T06:10:03;0.20;;;0.20;;
32876;SDS011;19226;51.600;8.034;2024-03-02T06:12:48;0.20;;;0.20;;
32876;SDS011;19226;51.600;8.034;2024-03-02T06:15:32;0.20;;;0.20;;
32876;SDS011;19226;51.600;8.034;2024-03-02T06:18:19;0.20;;;0.20;;
32876;SDS011;19226;51.600;8.034;2024-03-02T06:21:04;0.20;;;0.20;;
32876;SDS011;19226;51.600;8.034;2024-03-02T06:23:48;0.20;;;0.20;;
32876;SDS011;19226;51.600;8.034;2024-03-02T06:26:33;0.20;;;0.20;;
32876;SDS011;19226;51.600;8.034;2024-03-02T06:29:17;0.20;;;0.20;;
32876;SDS011;19226;51.600;8.034;2024-03-02T06:32:02;0.20;;;0.20;;
32876;SDS011;19226;51.600;8.034;2024-03-02T06:34:46;0.20;;;0.20;;
32876;SDS011;19226;51.600;8.034;2024-03-02T06:37:31;0.20;;;0.20;;
32876;SDS011;19226;51.600;8.034;2024-03-02T06:40:16;0.20;;;0.20;;
32876;SDS011;19226;51.600;8.034;2024-03-02T06:43:00;0.20;;;0.20;;
32876;SDS011;19226;51.600;8.034;2024-03-02T06:45:44;0.20;;;0.20;;
32876;SDS011;19226;51.600;8.034;2024-03-02T06:48:29;0.20;;;0.20;;
32876;SDS011;19226;51.600;8.034;2024-03-02T06:51:13;0.20;;;0.20;;
32876;SDS011;19226;51.600;8.034;2024-03-02T06:53:59;0.20;;;0.20;;
32876;SDS011;19226;51.600;8.034;2024-03-02T06:56:44;0.30;;;0.30;;
32876;SDS011;19226;51.600;8.034;2024-03-02T06:59:28;0.20;;;0.20;;
32876;SDS011;19226;51.600;8.034;2024-03-02T07:02:13;0.20;;;0.20;;
32876;SDS011;19226;51.600;8.034;2024-03-02T07:04:58;0.20;;;0.20;;
32876;SDS011;19226;51.600;8.034;2024-03-02T07:07:42;0.20;;;0.20;;
32876;SDS011;19226;51.600;8.034;2024-03-02T07:10:27;0.20;;;0.20;;
32876;SDS011;19226;51.600;8.034;2024-03-02T07:13:12;0.20;;;0.20;;
32876;SDS011;19226;51.600;8.034;2024-03-02T07:15:56;0.30;;;0.30;;
32876;SDS011;19226;51.600;8.034;2024-03-02T07:18:47;0.20;;;0.20;;
32876;SDS011;19226;51.600;8.034;2024-03-02T07:21:35;0.20;;;0.20;;
32876;SDS011;19226;51.600;8.034;2024-03-02T07:24:20;0.20;;;0.20;;
32876;SDS011;19226;51.600;8.034;2024-03-02T07:27:04;0.20;;;0.20;;
32876;SDS011;19226;51.600;8.034;2024-03-02T07:29:48;0.20;;;0.20;;
32876;SDS011;19226;51.600;8.034;2024-03-02T07:32:33;0.20;;;0.20;;
32876;SDS011;19226;51.600;8.034;2024-03-02T07:35:17;0.20;;;0.20;;
32876;SDS011;19226;51.600;8.034;2024-03-02T07:38:02;0.20;;;0.20;;
32876;SDS011;19226;51.600;8.034;2024-03-02T07:40:47;0.20;;;0.20;;
32876;SDS011;19226;51.600;8.034;2024-03-02T07:43:35;0.20;;;0.20;;
32876;SDS011;19226;51.600;8.034;2024-03-02T07:46:20;0.20;;;0.20;;
32876;SDS011;19226;51.600;8.034;2024-03-02T07:49:05;0.20;;;0.20;;
32876;SDS011;19226;51.600;8.034;2024-03-02T07:51:50;0.20;;;0.20;;
32876;SDS011;19226;51.600;8.034;2024-03-02T07:54:34;0.20;;;0.20;;
32876;SDS011;19226;51.600;8.034;2024-03-02T07:57:19;0.20;;;0.20;;
32876;SDS011;19226;51.600;8.034;2024-03-02T08:00:04;0.20;;;0.20;;
32876;SDS011;19226;51.600;8.034;2024-03-02T08:02:56;0.20;;;0.20;;
32876;SDS011;19226;51.600;8.034;2024-03-02T08:05:40;0.20;;;0.20;;
32876;SDS011;19226;51.600;8.034;2024-03-02T08:08:25;0.20;;;0.20;;
32876;SDS011;19226;51.600;8.034;2024-03-02T08:11:09;0.20;;;0.20;;
32876;SDS011;19226;51.600;8.034;2024-03-02T08:13:54;0.20;;;0.20;;
32876;SDS011;19226;51.600;8.034;2024-03-02T08:16:38;0.20;;;0.20;;
32876;SDS011;19226;51.600;8.034;2024-03-02T08:19:23;0.20;;;0.20;;
32876;SDS011;19226;51.600;8.034;2024-03-02T08:22:08;0.20;;;0.20;;
32876;SDS011;19226;51.600;8.034;2024-03-02T08:24:53;0.20;;;0.20;;
32876;SDS011;19226;51.600;8.034;2024-03-02T08:27:39;0.10;;;0.10;;
32876;SDS011;19226;51.600;8.034;2024-03-02T08:30:24;0.10;;;0.10;;
32876;SDS011;19226;51.600;8.034;2024-03-02T08:33:08;0.15;;;0.15;;
32876;SDS011;19226;51.600;8.034;2024-03-02T08:35:53;0.20;;;0.20;;
32876;SDS011;19226;51.600;8.034;2024-03-02T08:38:37;0.10;;;0.10;;
32876;SDS011;19226;51.600;8.034;2024-03-02T08:41:22;0.10;;;0.10;;
32876;SDS011;19226;51.600;8.034;2024-03-02T08:44:06;0.10;;;0.10;;
32876;SDS011;19226;51.600;8.034;2024-03-02T08:46:51;0.17;;;0.17;;
32876;SDS011;19226;51.600;8.034;2024-03-02T08:49:35;0.10;;;0.10;;
32876;SDS011;19226;51.600;8.034;2024-03-02T08:52:20;0.10;;;0.10;;
32876;SDS011;19226;51.600;8.034;2024-03-02T08:55:05;0.10;;;0.10;;
32876;SDS011;19226;51.600;8.034;2024-03-02T08:57:50;0.10;;;0.10;;
32876;SDS011;19226;51.600;8.034;2024-03-02T09:00:35;0.10;;;0.10;;
32876;SDS011;19226;51.600;8.034;2024-03-02T09:03:19;0.10;;;0.10;;
32876;SDS011;19226;51.600;8.034;2024-03-02T09:06:04;0.10;;;0.10;;
32876;SDS011;19226;51.600;8.034;2024-03-02T09:08:48;0.10;;;0.10;;
32876;SDS011;19226;51.600;8.034;2024-03-02T09:11:35;0.10;;;0.10;;
32876;SDS011;19226;51.600;8.034;2024-03-02T09:14:20;0.10;;;0.10;;
32876;SDS011;19226;51.600;8.034;2024-03-02T09:17:05;0.10;;;0.10;;
32876;SDS011;19226;51.600;8.034;2024-03-02T09:19:50;0.10;;;0.10;;
32876;SDS011;19226;51.600;8.034;2024-03-02T09:22:36;0.10;;;0.10;;
32876;SDS011;19226;51.600;8.034;2024-03-02T09:25:21;0.10;;;0.10;;
32876;SDS011;19226;51.600;8.034;2024-03-02T09:28:06;0.10;;;0.10;;
32876;SDS011;19226;51.600;8.034;2024-03-02T09:30:51;0.10;;;0.10;;
32876;SDS011;19226;51.600;8.034;2024-03-02T09:33:35;0.10;;;0.10;;
32876;SDS011;19226;51.600;8.034;2024-03-02T09:36:21;0.00;;;0.00;;
32876;SDS011;19226;51.600;8.034;2024-03-02T09:39:10;0.10;;;0.10;;
32876;SDS011;19226;51.600;8.034;2024-03-02T09:41:54;0.10;;;0.10;;
32876;SDS011;19226;51.600;8.034;2024-03-02T09:44:39;0.10;;;0.10;;
32876;SDS011;19226;51.600;8.034;2024-03-02T09:47:23;0.10;;;0.10;;
32876;SDS011;19226;51.600;8.034;2024-03-02T09:50:08;0.10;;;0.10;;
32876;SDS011;19226;51.600;8.034;2024-03-02T09:52:53;0.10;;;0.10;;
32876;SDS011;19226;51.600;8.034;2024-03-02T09:55:38;0.00;;;0.00;;
32876;SDS011;19226;51.600;8.034;2024-03-02T09:58:26;0.00;;;0.00;;
32876;SDS011;19226;51.600;8.034;2024-03-02T10:01:11;0.10;;;0.10;;
32876;SDS011;19226;51.600;8.034;2024-03-02T10:03:57;0.10;;;0.10;;
32876;SDS011;19226;51.600;8.034;2024-03-02T10:06:44;0.10;;;0.10;;
32876;SDS011;19226;51.600;8.034;2024-03-02T10:09:28;0.10;;;0.10;;
32876;SDS011;19226;51.600;8.034;2024-03-02T10:12:13;0.00;;;0.00;;
32876;SDS011;19226;51.600;8.034;2024-03-02T10:15:03;0.00;;;0.00;;
32876;SDS011;19226;51.600;8.034;2024-03-02T10:17:49;0.00;;;0.00;;
32876;SDS011;19226;51.600;8.034;2024-03-02T10:20:33;0.10;;;0.10;;
32876;SDS011;19226;51.600;8.034;2024-03-02T10:23:18;0.00;;;0.00;;
32876;SDS011;19226;51.600;8.034;2024-03-02T10:26:11;0.05;;;0.05;;
32876;SDS011;19226;51.600;8.034;2024-03-02T10:29:02;0.10;;;0.10;;
32876;SDS011;19226;51.600;8.034;2024-03-02T10:31:46;0.10;;;0.10;;
32876;SDS011;19226;51.600;8.034;2024-03-02T10:34:31;0.00;;;0.00;;
32876;SDS011;19226;51.600;8.034;2024-03-02T10:37:16;0.00;;;0.00;;
32876;SDS011;19226;51.600;8.034;2024-03-02T10:40:06;0.05;;;0.05;;
32876;SDS011;19226;51.600;8.034;2024-03-02T10:42:52;0.10;;;0.10;;
32876;SDS011;19226;51.600;8.034;2024-03-02T10:45:36;0.00;;;0.00;;
32876;SDS011;19226;51.600;8.034;2024-03-02T10:48:21;0.00;;;0.00;;
32876;SDS011;19226;51.600;8.034;2024-03-02T10:51:06;0.00;;;0.00;;
32876;SDS011;19226;51.600;8.034;2024-03-02T10:53:51;0.00;;;0.00;;
32876;SDS011;19226;51.600;8.034;2024-03-02T10:56:40;0.00;;;0.00;;
32876;SDS011;19226;51.600;8.034;2024-03-02T11:02:12;0.00;;;0.00;;
32876;SDS011;19226;51.600;8.034;2024-03-02T11:04:59;0.00;;;0.00;;
32876;SDS011;19226;51.600;8.034;2024-03-02T11:07:46;0.00;;;0.00;;
32876;SDS011;19226;51.600;8.034;2024-03-02T11:10:54;0.00;;;0.00;;
32876;SDS011;19226;51.600;8.034;2024-03-02T11:13:42;0.00;;;0.00;;
32876;SDS011;19226;51.600;8.034;2024-03-02T11:16:36;0.00;;;0.00;;
32876;SDS011;19226;51.600;8.034;2024-03-02T11:19:22;0.00;;;0.00;;
32876;SDS011;19226;51.600;8.034;2024-03-02T11:22:08;0.00;;;0.00;;
32876;SDS011;19226;51.600;8.034;2024-03-02T11:24:53;0.00;;;0.00;;
32876;SDS011;19226;51.600;8.034;2024-03-02T11:33:22;0.00;;;0.00;;
32876;SDS011;19226;51.600;8.034;2024-03-02T11:36:08;0.00;;;0.00;;
32876;SDS011;19226;51.600;8.034;2024-03-02T11:38:53;0.00;;;0.00;;
32876;SDS011;19226;51.600;8.034;2024-03-02T11:41:39;0.00;;;0.00;;
32876;SDS011;19226;51.600;8.034;2024-03-02T11:44:27;0.00;;;0.00;;
32876;SDS011;19226;51.600;8.034;2024-03-02T11:47:13;0.00;;;0.00;;
32876;SDS011;19226;51.600;8.034;2024-03-02T11:49:59;0.00;;;0.00;;
32876;SDS011;19226;51.600;8.034;2024-03-02T11:52:43;0.00;;;0.00;;
32876;SDS011;19226;51.600;8.034;2024-03-02T11:55:30;0.00;;;0.00;;
32876;SDS011;19226;51.600;8.034;2024-03-02T11:58:15;0.00;;;0.00;;
32876;SDS011;19226;51.600;8.034;2024-03-02T12:01:04;0.00;;;0.00;;
32876;SDS011;19226;51.600;8.034;2024-03-02T12:03:48;0.00;;;0.00;;
32876;SDS011;19226;51.600;8.034;2024-03-02T12:06:33;0.00;;;0.00;;
32876;SDS011;19226;51.600;8.034;2024-03-02T12:09:17;0.00;;;0.00;;
32876;SDS011;19226;51.600;8.034;2024-03-02T12:12:02;0.00;;;0.00;;
32876;SDS011;19226;51.600;8.034;2024-03-02T12:14:50;0.00;;;0.00;;
32876;SDS011;19226;51.600;8.034;2024-03-02T12:17:36;0.00;;;0.00;;
32876;SDS011;19226;51.600;8.034;2024-03-02T12:20:21;0.00;;;0.00;;
32876;SDS011;19226;51.600;8.034;2024-03-02T12:23:07;0.00;;;0.00;;
32876;SDS011;19226;51.600;8.034;2024-03-02T12:25:52;0.00;;;0.00;;
32876;SDS011;19226;51.600;8.034;2024-03-02T12:28:37;0.00;;;0.00;;
32876;SDS011;19226;51.600;8.034;2024-03-02T12:31:21;0.00;;;0.00;;
32876;SDS011;19226;51.600;8.034;2024-03-02T12:34:06;0.00;;;0.00;;
32876;SDS011;19226;51.600;8.034;2024-03-02T12:36:51;0.00;;;0.00;;
32876;SDS011;19226;51.600;8.034;2024-03-02T12:39:37;0.00;;;0.00;;
32876;SDS011;19226;51.600;8.034;2024-03-02T12:42:21;0.00;;;0.00;;
32876;SDS011;19226;51.600;8.034;2024-03-02T12:45:08;0.00;;;0.00;;
32876;SDS011;19226;51.600;8.034;2024-03-02T12:47:54;0.00;;;0.00;;
32876;SDS011;19226;51.600;8.034;2024-03-02T12:50:38;0.00;;;0.00;;
32876;SDS011;19226;51.600;8.034;2024-03-02T12:53:23;0.00;;;0.00;;
32876;SDS011;19226;51.600;8.034;2024-03-02T12:56:08;0.00;;;0.00;;
32876;SDS011;19226;51.600;8.034;2024-03-02T12:58:53;0.00;;;0.00;;
32876;SDS011;19226;51.600;8.034;2024-03-02T13:01:38;0.00;;;0.00;;
32876;SDS011;19226;51.600;8.034;2024-03-02T13:04:37;0.00;;;0.00;;
32876;SDS011;19226;51.600;8.034;2024-03-02T13:07:23;0.00;;;0.00;;
32876;SDS011;19226;51.600;8.034;2024-03-02T13:10:07;0.00;;;0.00;;
32876;SDS011;19226;51.600;8.034;2024-03-02T13:12:52;0.00;;;0.00;;
32876;SDS011;19226;51.600;8.034;2024-03-02T13:15:37;0.00;;;0.00;;
32876;SDS011;19226;51.600;8.034;2024-03-02T13:18:22;0.00;;;0.00;;
32876;SDS011;19226;51.600;8.034;2024-03-02T13:21:10;0.00;;;0.00;;
32876;SDS011;19226;51.600;8.034;2024-03-02T13:23:55;0.00;;;0.00;;
32876;SDS011;19226;51.600;8.034;2024-03-02T13:26:39;0.00;;;0.00;;
32876;SDS011;19226;51.600;8.034;2024-03-02T13:29:24;0.00;;;0.00;;
32876;SDS011;19226;51.600;8.034;2024-03-02T13:32:08;0.00;;;0.00;;
32876;SDS011;19226;51.600;8.034;2024-03-02T13:34:53;0.00;;;0.00;;
32876;SDS011;19226;51.600;8.034;2024-03-02T13:37:38;0.00;;;0.00;;
32876;SDS011;19226;51.600;8.034;2024-03-02T13:40:23;0.00;;;0.00;;
32876;SDS011;19226;51.600;8.034;2024-03-02T13:43:07;0.00;;;0.00;;
32876;SDS011;19226;51.600;8.034;2024-03-02T13:45:52;0.00;;;0.00;;
32876;SDS011;19226;51.600;8.034;2024-03-02T13:48:37;0.00;;;0.00;;
32876;SDS011;19226;51.600;8.034;2024-03-02T13:51:21;0.00;;;0.00;;
32876;SDS011;19226;51.600;8.034;2024-03-02T13:54:06;0.00;;;0.00;;
32876;SDS011;19226;51.600;8.034;2024-03-02T13:56:51;0.00;;;0.00;;
32876;SDS011;19226;51.600;8.034;2024-03-02T13:59:36;0.00;;;0.00;;
32876;SDS011;19226;51.600;8.034;2024-03-02T14:02:22;0.00;;;0.00;;
32876;SDS011;19226;51.600;8.034;2024-03-02T14:05:06;0.00;;;0.00;;
32876;SDS011;19226;51.600;8.034;2024-03-02T14:07:54;0.00;;;0.00;;
32876;SDS011;19226;51.600;8.034;2024-03-02T14:10:39;0.00;;;0.00;;
32876;SDS011;19226;51.600;8.034;2024-03-02T14:13:23;0.00;;;0.00;;
32876;SDS011;19226;51.600;8.034;2024-03-02T14:16:10;0.00;;;0.00;;
32876;SDS011;19226;51.600;8.034;2024-03-02T14:18:55;0.00;;;0.00;;
32876;SDS011;19226;51.600;8.034;2024-03-02T14:21:40;0.00;;;0.00;;
32876;SDS011;19226;51.600;8.034;2024-03-02T14:24:25;0.00;;;0.00;;
32876;SDS011;19226;51.600;8.034;2024-03-02T14:27:10;0.00;;;0.00;;
32876;SDS011;19226;51.600;8.034;2024-03-02T14:29:55;0.00;;;0.00;;
32876;SDS011;19226;51.600;8.034;2024-03-02T14:32:40;0.00;;;0.00;;
32876;SDS011;19226;51.600;8.034;2024-03-02T14:35:24;0.00;;;0.00;;
32876;SDS011;19226;51.600;8.034;2024-03-02T14:38:09;0.00;;;0.00;;
32876;SDS011;19226;51.600;8.034;2024-03-02T14:40:54;0.00;;;0.00;;
32876;SDS011;19226;51.600;8.034;2024-03-02T14:43:39;0.00;;;0.00;;
32876;SDS011;19226;51.600;8.034;2024-03-02T14:46:24;0.00;;;0.00;;
32876;SDS011;19226;51.600;8.034;2024-03-02T14:49:08;0.00;;;0.00;;
32876;SDS011;19226;51.600;8.034;2024-03-02T14:51:54;0.00;;;0.00;;
32876;SDS011;19226;51.600;8.034;2024-03-02T14:54:39;0.00;;;0.00;;
32876;SDS011;19226;51.600;8.034;2024-03-02T14:57:23;0.00;;;0.00;;
32876;SDS011;19226;51.600;8.034;2024-03-02T15:00:08;0.00;;;0.00;;
32876;SDS011;19226;51.600;8.034;2024-03-02T15:02:54;0.00;;;0.00;;
32876;SDS011;19226;51.600;8.034;2024-03-02T15:05:39;0.00;;;0.00;;
32876;SDS011;19226;51.600;8.034;2024-03-02T15:08:25;0.00;;;0.00;;
32876;SDS011;19226;51.600;8.034;2024-03-02T15:11:10;0.00;;;0.00;;
32876;SDS011;19226;51.600;8.034;2024-03-02T15:13:54;0.00;;;0.00;;
32876;SDS011;19226;51.600;8.034;2024-03-02T15:16:39;0.00;;;0.00;;
32876;SDS011;19226;51.600;8.034;2024-03-02T15:19:25;0.00;;;0.00;;
32876;SDS011;19226;51.600;8.034;2024-03-02T15:22:10;0.00;;;0.00;;
32876;SDS011;19226;51.600;8.034;2024-03-02T15:24:56;0.00;;;0.00;;
32876;SDS011;19226;51.600;8.034;2024-03-02T15:27:41;0.00;;;0.00;;
32876;SDS011;19226;51.600;8.034;2024-03-02T15:30:26;0.00;;;0.00;;
32876;SDS011;19226;51.600;8.034;2024-03-02T15:33:10;0.00;;;0.00;;
32876;SDS011;19226;51.600;8.034;2024-03-02T15:35:55;0.00;;;0.00;;
32876;SDS011;19226;51.600;8.034;2024-03-02T15:38:39;0.00;;;0.00;;
32876;SDS011;19226;51.600;8.034;2024-03-02T15:41:24;0.00;;;0.00;;
32876;SDS011;19226;51.600;8.034;2024-03-02T15:44:09;0.00;;;0.00;;
32876;SDS011;19226;51.600;8.034;2024-03-02T15:46:53;0.00;;;0.00;;
32876;SDS011;19226;51.600;8.034;2024-03-02T15:49:41;0.00;;;0.00;;
32876;SDS011;19226;51.600;8.034;2024-03-02T15:52:25;0.00;;;0.00;;
32876;SDS011;19226;51.600;8.034;2024-03-02T15:55:10;0.00;;;0.00;;
32876;SDS011;19226;51.600;8.034;2024-03-02T15:57:54;0.00;;;0.00;;
32876;SDS011;19226;51.600;8.034;2024-03-02T16:00:40;0.00;;;0.00;;
32876;SDS011;19226;51.600;8.034;2024-03-02T16:03:25;0.00;;;0.00;;
32876;SDS011;19226;51.600;8.034;2024-03-02T16:06:09;0.00;;;0.00;;
32876;SDS011;19226;51.600;8.034;2024-03-02T16:08:54;0.00;;;0.00;;
32876;SDS011;19226;51.600;8.034;2024-03-02T16:11:40;0.00;;;0.00;;
32876;SDS011;19226;51.600;8.034;2024-03-02T16:14:25;0.00;;;0.00;;
32876;SDS011;19226;51.600;8.034;2024-03-02T16:17:09;0.00;;;0.00;;
32876;SDS011;19226;51.600;8.034;2024-03-02T16:19:54;0.00;;;0.00;;
32876;SDS011;19226;51.600;8.034;2024-03-02T16:22:40;0.00;;;0.00;;
32876;SDS011;19226;51.600;8.034;2024-03-02T16:25:25;0.00;;;0.00;;
32876;SDS011;19226;51.600;8.034;2024-03-02T16:28:09;0.00;;;0.00;;
32876;SDS011;19226;51.600;8.034;2024-03-02T16:30:54;0.00;;;0.00;;
32876;SDS011;19226;51.600;8.034;2024-03-02T16:33:38;0.00;;;0.00;;
32876;SDS011;19226;51.600;8.034;2024-03-02T16:36:23;0.00;;;0.00;;
32876;SDS011;19226;51.600;8.034;2024-03-02T16:39:09;0.00;;;0.00;;
32876;SDS011;19226;51.600;8.034;2024-03-02T16:41:54;0.00;;;0.00;;
32876;SDS011;19226;51.600;8.034;2024-03-02T16:44:40;0.00;;;0.00;;
32876;SDS011;19226;51.600;8.034;2024-03-02T16:47:25;0.00;;;0.00;;
32876;SDS011;19226;51.600;8.034;2024-03-02T16:50:10;0.00;;;0.00;;
32876;SDS011;19226;51.600;8.034;2024-03-02T16:52:55;0.00;;;0.00;;